Wetterdaten: aktuell Montag, 18.02.2019 17:10
Datum Zeit Temp. A. Feuchte A. Luftdruck Regen Wind Richtung Richtung Taupunkt Windchill Windben
18.02.2019 17:10 4,8 C 65 % 1022,8 hPa 0,0 l/m 3,2 km/h (1 Bft) NO 45 -1,2 C 4,8 C 3,2 km/h (1 Bft)
18.02.2019 16:10 8,9 C 51 % 1023,0 hPa 0,0 l/m 1,6 km/h (1 Bft) NO 45 -0,7 C 8,9 C 3,2 km/h (1 Bft)
18.02.2019 15:10 10,5 C 47 % 1023,6 hPa 0,0 l/m 3,2 km/h (1 Bft) NO 45 -0,3 C 10,5 C 3,2 km/h (1 Bft)
18.02.2019 14:10 10,3 C 44 % 1023,9 hPa 0,0 l/m 3,2 km/h (1 Bft) O-NO 67 -1,4 C 10,3 C 4,8 km/h (1 Bft)
18.02.2019 13:10 8,8 C 51 % 1024,7 hPa 0,0 l/m 1,6 km/h (1 Bft) NO 45 -0,8 C 8,8 C 4,8 km/h (1 Bft)
18.02.2019 12:10 7,8 C 49 % 1025,7 hPa 0,0 l/m 1,6 km/h (1 Bft) O 90 -2,2 C 7,8 C 3,2 km/h (1 Bft)
18.02.2019 11:10 6,0 C 53 % 1026,2 hPa 0,0 l/m 3,2 km/h (1 Bft) SW 225 -2,8 C 6,0 C 4,8 km/h (1 Bft)
18.02.2019 10:10 2,0 C 65 % 1026,4 hPa 0,0 l/m 1,6 km/h (1 Bft) S-SW 202 -3,9 C 2,0 C 3,2 km/h (1 Bft)
18.02.2019 09:10 -1,5 C 80 % 1027,0 hPa 0,0 l/m 0,0 km/h (0 Bft) W-SW 247 -4,5 C -1,5 C 1,6 km/h (1 Bft)
18.02.2019 08:10 -4,2 C 84 % 1027,4 hPa 0,0 l/m 1,6 km/h (1 Bft) W 270 -6,5 C -4,2 C 3,2 km/h (1 Bft)
18.02.2019 07:10 -3,7 C 76 % 1027,0 hPa 0,0 l/m 3,2 km/h (1 Bft) W-SW 247 -7,3 C -3,7 C 3,2 km/h (1 Bft)
18.02.2019 06:10 -0,6 C 70 % 1027,0 hPa 0,0 l/m 3,2 km/h (1 Bft) W-SW 247 -5,4 C -0,6 C 3,2 km/h (1 Bft)
18.02.2019 05:10 -1,7 C 80 % 1027,2 hPa 0,0 l/m 4,8 km/h (1 Bft) W 270 -4,7 C -1,7 C 6,4 km/h (2 Bft)
18.02.2019 04:10 -6,3 C 91 % 1027,3 hPa 0,0 l/m 3,2 km/h (1 Bft) SW 225 -7,5 C -6,3 C 4,8 km/h (1 Bft)
18.02.2019 03:10 -6,5 C 91 % 1027,6 hPa 0,0 l/m 1,6 km/h (1 Bft) NO 45 -7,7 C -6,5 C 3,2 km/h (1 Bft)
18.02.2019 02:10 -5,0 C 88 % 1028,2 hPa 0,0 l/m 1,6 km/h (1 Bft) NO 45 -6,7 C -5,0 C 1,6 km/h (1 Bft)
18.02.2019 01:10 -5,9 C 90 % 1028,4 hPa 0,0 l/m 1,6 km/h (1 Bft) NO 45 -7,3 C -5,9 C 3,2 km/h (1 Bft)
18.02.2019 00:10 -5,8 C 86 % 1028,6 hPa 0,0 l/m 1,6 km/h (1 Bft) NO 45 -7,8 C -5,8 C 1,6 km/h (1 Bft)
17.02.2019 23:10 -4,7 C 88 % 1028,4 hPa 0,0 l/m 3,2 km/h (1 Bft) NO 45 -6,4 C -4,7 C 3,2 km/h (1 Bft)
17.02.2019 22:10 -3,2 C 83 % 1028,5 hPa 0,0 l/m 0,0 km/h (0 Bft) N 0 -5,7 C -3,2 C 0,0 km/h (0 Bft)
17.02.2019 21:10 -3,4 C 86 % 1028,7 hPa 0,0 l/m 1,6 km/h (1 Bft) NO 45 -5,4 C -3,4 C 3,2 km/h (1 Bft)
17.02.2019 20:10 -1,7 C 84 % 1028,6 hPa 0,0 l/m 1,6 km/h (1 Bft) NO 45 -4,0 C -1,7 C 1,6 km/h (1 Bft)
17.02.2019 19:10 0,1 C 82 % 1028,5 hPa 0,0 l/m 0,0 km/h (0 Bft) N 0 -2,6 C 0,1 C 0,0 km/h (0 Bft)
17.02.2019 18:10 2,3 C 74 % 1028,3 hPa 0,0 l/m 0,0 km/h (0 Bft) N 0 -1,8 C 2,3 C 0,0 km/h (0 Bft)
17.02.2019 18:00 2,7 C 74 % 1028,3 hPa 0,0 l/m 0,0 km/h (0 Bft) N 0 -1,5 C 2,7 C 0,0 km/h (0 Bft)
_ Min-Zeit 03:03 14:23 16:41 - 18:00 - - 03:03 03:03 18:00
Minimum _ -7,6 C 42 % 1022,5 hPa - 0,0 km/h (0 Bft) - - -9,4 C -7,6 C 0,0 km/h (0 Bft)
_ Max-Zeit 14:59 01:17 20:40 18:00 05:59 - - 15:35 14:59 05:59
Maximum _ 10,6 C 91 % 1028,8 hPa 0,0 l/m 9,7 km/h
S-SW (2 Bft)
- - 0,5 C 10,6 C 12,9 km/h
S-SW (3 Bft)
Durchschnitt _ 0,3 C 74 % 1027,0 hPa #0,0 l/m 1,6 km/h (1 Bft) NO - -4,2 C 0,3 C 2,5 km/h (1 Bft)